Time;durP1;ratioP1;P1;durP2;ratioP2;P2;SDS_P1;SDS_P2;PMS_P1;PMS_P2;Temp;Humidity;BMP_temperature;BMP_pressure;BME280_temperature;BME280_humidity;BME280_pressure;Samples;Min_cycle;Max_cycle;Signal;HPM_P1;HPM_P2
2022/12/08 00:11:01;;;;;;;10.57;4.70;;;;;;;-4.47;54.33;100231.09;6189457;23;20031;-89
2022/12/08 00:18:51;;;;;;;15.38;5.20;;;;;;;-4.66;55.05;100235.28;6188933;23;20106;-92
2022/12/08 00:26:24;;;;;;;12.27;5.07;;;;;;;-4.77;55.42;100228.63;6191178;23;20510;-90
2022/12/08 00:33:41;;;;;;;13.65;5.82;;;;;;;-4.76;54.97;100210.75;6101438;23;20037;-91
2022/12/08 00:40:03;;;;;;;12.07;5.10;;;;;;;-5.24;54.63;100104.66;5984199;24;20055;-92
2022/12/08 00:59:42;;;;;;;18.73;5.75;;;;;;;-4.60;54.26;100210.50;5985462;24;20031;-91
2022/12/08 01:10:50;;;;;;;10.75;5.70;;;;;;;-4.38;54.40;100211.28;6042820;23;20660;-91
2022/12/08 01:13:31;;;;;;;13.70;5.47;;;;;;;-5.13;54.59;100139.81;6041587;23;20026;-93
2022/12/08 01:24:56;;;;;;;13.65;5.90;;;;;;;-4.32;54.40;100218.50;6166843;23;20067;-92
2022/12/08 01:48:47;;;;;;;15.05;5.80;;;;;;;-4.59;54.62;100161.44;6220225;23;20084;-93
2022/12/08 01:52:13;;;;;;;11.77;5.63;;;;;;;-4.55;54.95;100196.56;6145746;23;20027;-94
2022/12/08 01:59:43;;;;;;;11.48;5.43;;;;;;;-4.72;55.48;100204.84;6160396;23;20101;-93
2022/12/08 02:02:11;;;;;;;13.43;5.38;;;;;;;-5.00;55.21;100139.94;5972803;23;20019;-91
2022/12/08 02:20:52;;;;;;;13.48;4.82;;;;;;;-4.40;55.08;100196.47;6015046;23;20030;-93
2022/12/08 02:28:44;;;;;;;13.15;5.38;;;;;;;-4.73;55.30;100183.72;6017706;23;20122;-92
2022/12/08 02:36:45;;;;;;;11.60;5.82;;;;;;;-4.65;55.58;100178.22;5930212;24;20042;-92
2022/12/08 02:44:25;;;;;;;9.75;4.68;;;;;;;-4.22;54.29;100180.81;6063699;23;20136;-91
2022/12/08 02:55:34;;;;;;;12.25;5.05;;;;;;;-4.56;54.80;100161.06;6072550;23;20029;-91
2022/12/08 02:59:05;;;;;;;10.35;5.35;;;;;;;-4.47;55.14;100167.06;6161443;23;20104;-91
2022/12/08 03:18:49;;;;;;;12.52;4.97;;;;;;;-4.92;54.53;100048.34;6208391;23;20025;-92
2022/12/08 03:21:32;;;;;;;12.10;5.10;;;;;;;-4.81;55.11;100117.97;6156990;23;20040;-92
2022/12/08 03:24:01;;;;;;;16.58;5.43;;;;;;;-4.68;55.41;100138.59;6173843;23;20048;-92
2022/12/08 03:34:37;;;;;;;12.27;4.95;;;;;;;-4.93;54.58;100030.69;6170271;23;20363;-91
2022/12/08 03:37:20;;;;;;;15.07;5.10;;;;;;;-4.55;54.72;100122.69;6121951;23;20040;-91
2022/12/08 03:40:28;;;;;;;14.70;5.75;;;;;;;-5.00;54.47;100023.50;6122199;23;20101;-91
2022/12/08 03:43:45;;;;;;;10.90;4.72;;;;;;;-4.47;54.76;100121.69;6055028;23;20082;-91
2022/12/08 03:59:52;;;;;;;12.18;5.13;;;;;;;-5.03;54.87;100023.88;6079437;23;20482;-91
2022/12/08 04:23:58;;;;;;;15.32;5.38;;;;;;;-4.90;55.21;99996.47;6177915;23;20036;-92
2022/12/08 04:30:44;;;;;;;16.73;5.57;;;;;;;-4.21;55.12;100113.03;6143083;23;20164;-90
2022/12/08 04:41:52;;;;;;;12.15;5.38;;;;;;;-5.06;55.40;99989.59;6221286;23;20079;-89
2022/12/08 04:44:28;;;;;;;14.27;5.47;;;;;;;-4.65;55.41;100052.03;6195554;23;20063;-88
2022/12/08 04:46:54;;;;;;;18.90;7.93;;;;;;;-4.50;55.42;100058.06;6173488;23;20024;-90
2022/12/08 04:49:35;;;;;;;13.85;5.70;;;;;;;-4.93;56.42;100038.69;6169837;23;20024;-90
2022/12/08 04:52:02;;;;;;;14.05;5.93;;;;;;;-4.38;55.92;100091.19;6170094;23;20012;-89
2022/12/08 04:54:28;;;;;;;16.40;5.65;;;;;;;-4.38;55.31;100066.34;6168564;23;20074;-90
2022/12/08 04:57:09;;;;;;;13.15;5.78;;;;;;;-4.03;54.91;100105.34;6194914;23;20020;-90
2022/12/08 05:03:04;;;;;;;8.23;3.80;;;;;;;-4.76;55.56;100024.06;6198577;23;20047;-89
2022/12/08 05:05:50;;;;;;;10.88;5.03;;;;;;;-4.70;55.72;100025.09;6110102;23;20033;-89
2022/12/08 05:08:32;;;;;;;14.20;6.18;;;;;;;-4.94;56.02;100005.06;6126231;23;20014;-91
2022/12/08 05:11:24;;;;;;;18.73;5.03;;;;;;;-4.18;55.83;100103.81;6108854;23;20021;-89
2022/12/08 05:13:54;;;;;;;13.82;4.85;;;;;;;-4.39;55.34;100046.84;6129551;23;20109;-91
2022/12/08 05:17:16;;;;;;;11.63;5.50;;;;;;;-4.31;55.76;100094.69;6108488;23;20014;-89
2022/12/08 05:19:42;;;;;;;19.40;5.47;;;;;;;-4.53;56.16;100072.63;6128943;23;20025;-92
2022/12/08 05:22:08;;;;;;;10.30;4.40;;;;;;;-4.57;55.79;100055.38;6082916;23;20081;-90
2022/12/08 05:24:38;;;;;;;11.98;5.30;;;;;;;-4.67;56.09;100057.53;6108305;23;20069;-91
2022/12/08 05:27:14;;;;;;;12.30;5.07;;;;;;;-4.60;55.73;100031.75;6136191;23;20475;-92
2022/12/08 05:29:41;;;;;;;16.73;5.60;;;;;;;-4.69;56.01;100046.25;6084685;23;20022;-92
2022/12/08 05:32:44;;;;;;;9.63;4.63;;;;;;;-5.09;55.52;99983.84;6136365;23;20049;-92
2022/12/08 05:35:14;;;;;;;12.73;5.75;;;;;;;-4.59;55.57;100064.59;6087774;23;20515;-90
2022/12/08 05:37:53;;;;;;;17.65;5.38;;;;;;;-4.17;55.17;100087.63;6176900;23;20108;-91
2022/12/08 05:40:47;;;;;;;24.33;5.45;;;;;;;-4.16;55.14;100091.91;6174239;23;20031;-92
2022/12/08 05:43:14;;;;;;;12.75;5.47;;;;;;;-4.55;55.54;100081.84;6171120;23;20027;-90
2022/12/08 05:46:40;;;;;;;11.07;4.65;;;;;;;-4.51;55.65;100094.59;6171543;23;20025;-90
2022/12/08 05:49:07;;;;;;;14.27;4.55;;;;;;;-5.04;56.37;100050.72;6146676;23;20048;-90
2022/12/08 05:51:42;;;;;;;11.43;4.75;;;;;;;-4.76;56.94;100099.56;6129313;23;20048;-90
2022/12/08 05:54:33;;;;;;;18.33;5.75;;;;;;;-4.52;56.09;100092.94;6196745;23;20039;-90
2022/12/08 05:56:59;;;;;;;24.02;5.72;;;;;;;-4.74;55.71;100046.81;6172605;23;20017;-89
2022/12/08 05:59:25;;;;;;;11.27;4.57;;;;;;;-4.52;55.26;100055.59;6196092;23;20025;-91
2022/12/08 06:01:52;;;;;;;11.50;5.18;;;;;;;-4.23;55.27;100091.06;6171624;23;20020;-90
2022/12/08 06:04:32;;;;;;;18.75;5.50;;;;;;;-4.32;56.03;100068.22;6172178;23;20017;-92
2022/12/08 06:07:10;;;;;;;15.70;5.40;;;;;;;-4.38;55.17;100066.34;6194178;23;20072;-90
2022/12/08 06:09:37;;;;;;;12.68;4.90;;;;;;;-4.36;55.24;100058.97;6171533;23;20398;-91
2022/12/08 06:12:06;;;;;;;15.68;5.15;;;;;;;-4.81;55.82;100045.97;6175174;23;20016;-89
2022/12/08 06:14:35;;;;;;;15.48;5.40;;;;;;;-4.71;56.47;100064.28;6238829;23;20027;-91
2022/12/08 06:17:49;;;;;;;9.73;4.47;;;;;;;-4.49;55.96;100091.75;6208576;23;20047;-91
2022/12/08 06:20:28;;;;;;;12.13;4.57;;;;;;;-4.52;55.97;100052.91;6150735;23;20059;-92
2022/12/08 06:22:54;;;;;;;11.02;5.05;;;;;;;-5.00;56.06;100025.31;6175094;23;20103;-91
2022/12/08 06:25:22;;;;;;;16.17;5.07;;;;;;;-5.27;57.59;100050.94;6147044;23;20040;-91
2022/12/08 06:27:49;;;;;;;15.55;5.20;;;;;;;-5.27;58.15;100040.28;6224479;23;20023;-91
2022/12/08 06:30:24;;;;;;;12.45;5.32;;;;;;;-4.58;57.79;100092.91;6199153;23;20029;-92
2022/12/08 06:33:43;;;;;;;9.70;4.40;;;;;;;-4.49;56.26;100091.75;6198258;23;20336;-91
2022/12/08 06:36:11;;;;;;;13.98;4.70;;;;;;;-4.73;56.48;100040.50;6149600;23;20021;-89
2022/12/08 06:44:56;;;;;;;10.18;4.30;;;;;;;-4.40;56.36;100073.69;6029372;23;20023;-87
2022/12/08 06:51:30;;;;;;;13.10;5.07;;;;;;;-4.85;55.46;99950.56;6002407;23;20368;-91
2022/12/08 06:55:02;;;;;;;14.57;4.93;;;;;;;-4.04;55.26;100076.16;6018408;23;20026;-90
2022/12/08 06:57:30;;;;;;;21.42;4.40;;;;;;;-5.01;55.92;99997.81;5990356;23;20104;-92
2022/12/08 07:00:06;;;;;;;10.67;4.60;;;;;;;-4.51;55.94;100056.41;6016193;23;20027;-91
2022/12/08 07:06:40;;;;;;;11.43;5.07;;;;;;;-4.62;54.49;99972.41;5962375;24;20054;-91
2022/12/08 07:09:11;;;;;;;12.50;5.38;;;;;;;-4.26;55.08;100051.41;5954492;24;20029;-92
2022/12/08 07:11:40;;;;;;;16.23;4.80;;;;;;;-4.80;54.99;99972.09;5937819;24;20032;-91
2022/12/08 07:14:07;;;;;;;14.43;5.05;;;;;;;-4.36;55.64;100062.47;5894597;24;20024;-91
2022/12/08 07:16:34;;;;;;;19.77;5.18;;;;;;;-4.25;55.21;100047.72;5992878;23;20019;-91
2022/12/08 07:19:00;;;;;;;9.25;4.18;;;;;;;-4.33;54.55;100037.22;6050924;23;20025;-93
2022/12/08 07:21:36;;;;;;;16.67;4.95;;;;;;;-4.02;54.76;100071.44;6002852;23;20031;-91
2022/12/08 07:31:32;;;;;;;9.38;4.70;;;;;;;-3.99;54.48;100049.69;6136885;23;20021;-92
2022/12/08 07:34:14;;;;;;;11.00;4.65;;;;;;;-4.10;54.05;100019.03;6110449;23;20044;-91
2022/12/08 07:36:43;;;;;;;14.20;5.28;;;;;;;-3.96;54.18;100081.34;6061427;23;20021;-90
2022/12/08 07:39:09;;;;;;;11.20;4.85;;;;;;;-4.30;54.38;100050.19;6109719;23;20025;-90
2022/12/08 07:41:38;;;;;;;10.75;4.35;;;;;;;-4.44;54.59;100038.59;6112287;23;20028;-90
2022/12/08 07:44:04;;;;;;;10.95;4.60;;;;;;;-4.02;54.82;100085.63;6113036;23;20022;-92
2022/12/08 07:46:30;;;;;;;9.13;4.20;;;;;;;-4.09;54.60;100041.22;6088494;23;20056;-90
2022/12/08 07:49:49;;;;;;;14.23;5.10;;;;;;;-3.90;54.58;100071.72;6113412;23;20021;-90
2022/12/08 07:52:16;;;;;;;4.50;2.22;;;;;;;-4.03;54.52;100069.81;6109761;23;20017;-89
2022/12/08 07:54:58;;;;;;;22.52;5.28;;;;;;;-4.51;54.48;99953.16;6052088;23;20015;-89
2022/12/08 07:57:39;;;;;;;11.85;4.22;;;;;;;-4.31;53.95;99992.47;6047597;23;20027;-91
2022/12/08 08:00:40;;;;;;;13.10;5.88;;;;;;;-3.99;54.37;100028.31;6027501;23;20367;-90
2022/12/08 08:03:09;;;;;;;16.63;6.85;;;;;;;-4.00;54.31;100010.66;5997788;24;20483;-90
2022/12/08 08:05:39;;;;;;;14.52;5.72;;;;;;;-4.06;54.26;99974.06;5975677;24;20019;-90
2022/12/08 08:08:05;;;;;;;16.13;5.47;;;;;;;-3.67;53.69;100020.59;6000124;24;20020;-92
2022/12/08 08:10:32;;;;;;;13.85;6.22;;;;;;;-4.26;53.89;99928.63;5953850;24;20115;-89
2022/12/08 08:12:58;;;;;;;15.95;6.15;;;;;;;-3.92;53.99;100005.13;5951791;24;20073;-89
2022/12/08 08:15:41;;;;;;;12.38;5.30;;;;;;;-3.93;53.87;99983.97;5952468;24;20180;-90
2022/12/08 08:18:38;;;;;;;17.20;5.35;;;;;;;-3.58;53.99;100038.06;5974375;24;20020;-90
2022/12/08 08:21:14;;;;;;;15.02;5.53;;;;;;;-4.14;53.62;99937.72;5977783;24;20062;-91
2022/12/08 08:23:45;;;;;;;14.27;5.18;;;;;;;-3.44;53.39;100025.56;5991841;23;20019;-90
2022/12/08 08:26:17;;;;;;;15.05;4.75;;;;;;;-3.71;53.67;100009.47;5975586;24;20028;-90
2022/12/08 08:29:11;;;;;;;11.48;4.90;;;;;;;-3.59;53.97;100039.09;5981992;23;20031;-90
2022/12/08 08:31:37;;;;;;;10.70;4.95;;;;;;;-3.74;53.84;99983.19;6023130;23;20062;-91
2022/12/08 08:34:05;;;;;;;15.05;5.57;;;;;;;-3.29;53.00;100036.06;6087241;23;20022;-90
2022/12/08 08:36:32;;;;;;;11.30;5.35;;;;;;;-3.58;52.94;99998.81;6088687;23;20025;-89
2022/12/08 08:39:00;;;;;;;12.25;5.43;;;;;;;-3.46;53.17;100007.06;6112550;23;20026;-89
2022/12/08 08:41:35;;;;;;;12.82;5.68;;;;;;;-3.70;53.22;99951.53;6126962;23;20018;-87
2022/12/08 08:44:51;;;;;;;15.18;6.00;;;;;;;-3.20;53.28;100026.81;6117401;23;20049;-90
2022/12/08 08:47:17;;;;;;;12.60;6.87;;;;;;;-3.58;53.23;99998.81;6112397;23;20072;-90
2022/12/08 08:49:45;;;;;;;16.48;7.13;;;;;;;-3.79;53.23;99945.56;6133375;23;20049;-91
2022/12/08 08:52:11;;;;;;;6.03;3.27;;;;;;;-3.55;53.47;100029.66;6121019;23;20143;-90
2022/12/08 08:54:44;;;;;;;15.87;6.17;;;;;;;-3.60;54.57;100032.94;6137098;23;20107;-90
2022/12/08 08:58:18;;;;;;;18.38;6.32;;;;;;;-3.11;53.69;100029.09;6126344;23;20022;-91
2022/12/08 09:00:44;;;;;;;15.80;5.30;;;;;;;-3.26;53.37;100007.06;6104458;23;20128;-90
2022/12/08 09:06:58;;;;;;;12.68;6.18;;;;;;;-3.38;52.81;99939.19;6096311;23;20014;-92
2022/12/08 09:09:49;;;;;;;15.45;5.85;;;;;;;-2.86;52.64;100031.13;6063512;23;20025;-90
2022/12/08 09:12:24;;;;;;;16.63;5.72;;;;;;;-2.97;52.50;99976.41;6085835;23;20052;-91
2022/12/08 09:15:19;;;;;;;11.80;5.60;;;;;;;-2.81;52.61;100025.97;6059172;23;20032;-90
2022/12/08 09:18:12;;;;;;;12.57;6.25;;;;;;;-3.14;52.55;99984.03;6114484;23;20029;-91
2022/12/08 09:21:07;;;;;;;13.38;6.50;;;;;;;-2.79;52.44;100029.25;6059252;23;20018;-91
2022/12/08 09:23:34;;;;;;;15.60;5.97;;;;;;;-3.30;52.93;99973.75;6056911;23;20064;-91
2022/12/08 09:26:10;;;;;;;14.88;5.72;;;;;;;-3.40;53.19;99966.16;6105291;23;20188;-91
2022/12/08 09:28:37;;;;;;;15.52;6.05;;;;;;;-3.12;52.79;99989.16;6081738;23;20018;-91
2022/12/08 09:31:03;;;;;;;17.83;6.50;;;;;;;-3.14;52.01;99935.91;6083806;23;20033;-91
2022/12/08 09:33:30;;;;;;;16.27;6.37;;;;;;;-3.04;52.15;99953.38;6085059;23;20018;-91
2022/12/08 09:42:06;;;;;;;14.32;6.28;;;;;;;-2.96;53.29;99964.66;6083696;23;20022;-91
2022/12/08 09:45:13;;;;;;;15.10;6.47;;;;;;;-2.68;53.11;100014.41;6061180;23;20026;-91
2022/12/08 09:47:54;;;;;;;12.93;5.50;;;;;;;-2.81;53.15;100011.75;6081455;23;20070;-91
2022/12/08 09:50:53;;;;;;;15.30;6.30;;;;;;;-2.68;53.51;100003.69;6064372;23;20103;-90
2022/12/08 09:53:36;;;;;;;15.98;6.47;;;;;;;-2.51;52.68;99983.50;6104750;23;20053;-91
2022/12/08 09:56:53;;;;;;;22.20;6.55;;;;;;;-2.47;52.17;99992.75;6055220;23;20018;-90
2022/12/08 10:00:11;;;;;;;13.20;6.35;;;;;;;-2.49;52.28;99993.97;6074553;23;20018;-90
2022/12/08 10:03:26;;;;;;;15.00;6.68;;;;;;;-2.81;52.25;99939.50;6084297;23;20552;-92
2022/12/08 10:06:20;;;;;;;13.07;6.05;;;;;;;-2.44;52.13;99994.19;6078939;23;20126;-89
2022/12/08 10:09:43;;;;;;;16.23;5.85;;;;;;;-2.44;52.02;99997.69;5969568;24;20095;-90
2022/12/08 10:12:37;;;;;;;20.77;7.00;;;;;;;-2.34;52.00;99988.38;5949799;24;20514;-91
2022/12/08 10:18:30;;;;;;;15.20;6.05;;;;;;;-2.94;52.91;99953.75;6026765;23;20019;-89
2022/12/08 10:21:21;;;;;;;14.13;6.55;;;;;;;-3.01;53.03;99943.09;5968523;24;20210;-91
2022/12/08 10:24:08;;;;;;;13.40;6.45;;;;;;;-3.35;53.34;99923.56;5931890;24;20530;-89
2022/12/08 10:26:34;;;;;;;14.45;6.15;;;;;;;-3.73;53.51;99877.97;5923162;24;20051;-91
2022/12/08 10:29:12;;;;;;;16.13;7.00;;;;;;;-3.08;53.63;99934.22;5967245;24;20040;-88
2022/12/08 10:31:38;;;;;;;15.15;6.63;;;;;;;-2.74;52.94;99975.13;5922305;24;20653;-89
2022/12/08 10:34:18;;;;;;;18.23;7.00;;;;;;;-2.52;53.03;99997.06;5925871;24;20029;-91
2022/12/08 10:37:14;;;;;;;12.23;6.18;;;;;;;-2.51;52.75;99998.75;5902403;24;20020;-90
2022/12/08 10:39:46;;;;;;;15.57;6.32;;;;;;;-2.98;52.97;99929.28;5911832;24;20180;-89
2022/12/08 10:42:13;;;;;;;18.70;7.32;;;;;;;-2.51;53.39;100004.91;5900485;24;20020;-92
2022/12/08 10:45:08;;;;;;;18.42;7.28;;;;;;;-2.56;53.64;100009.25;5931519;23;20020;-92
2022/12/08 10:48:24;;;;;;;14.75;6.35;;;;;;;-2.64;53.85;100005.75;6077142;23;20043;-92
2022/12/08 10:51:52;;;;;;;14.45;6.57;;;;;;;-2.48;53.79;100007.16;6054558;23;20520;-91
2022/12/08 10:54:50;;;;;;;17.10;7.18;;;;;;;-2.46;53.48;100009.63;6105829;23;20029;-90
2022/12/08 10:58:06;;;;;;;15.48;6.70;;;;;;;-2.49;53.93;100012.72;6085999;23;20021;-90
2022/12/08 11:01:01;;;;;;;15.55;6.85;;;;;;;-2.42;53.80;100013.50;6147518;23;20017;-91
2022/12/08 11:09:57;;;;;;;16.65;7.07;;;;;;;-2.64;54.71;99988.88;6021158;23;20030;-90
2022/12/08 11:13:28;;;;;;;13.50;6.18;;;;;;;-2.70;54.48;99961.09;6045444;23;20034;-91
2022/12/08 11:15:56;;;;;;;15.95;6.78;;;;;;;-2.98;54.71;99907.03;6021547;23;20027;-91
2022/12/08 11:18:39;;;;;;;13.73;6.70;;;;;;;-2.63;54.51;99953.88;6018003;23;20407;-91
2022/12/08 11:21:10;;;;;;;12.52;6.30;;;;;;;-2.80;54.99;99933.16;6043239;23;20114;-90
2022/12/08 11:23:47;;;;;;;17.55;7.28;;;;;;;-2.35;55.27;99992.91;6042602;23;20019;-89
2022/12/08 11:27:03;;;;;;;16.55;7.20;;;;;;;-2.31;54.97;99994.13;6017924;23;20052;-89
2022/12/08 11:29:49;;;;;;;17.52;7.60;;;;;;;-2.85;55.86;99942.63;5992907;23;20019;-89
2022/12/08 11:32:15;;;;;;;16.52;7.43;;;;;;;-2.89;56.17;99928.00;6013500;23;20121;-88
2022/12/08 11:34:46;;;;;;;14.38;7.00;;;;;;;-2.36;55.44;99957.25;5956816;24;20012;-88
2022/12/08 11:37:23;;;;;;;15.63;7.20;;;;;;;-2.39;55.10;99960.38;5958107;24;20035;-89
2022/12/08 11:39:58;;;;;;;16.83;6.50;;;;;;;-2.35;55.50;99982.22;5965583;24;20016;-90
2022/12/08 11:42:52;;;;;;;17.92;7.43;;;;;;;-2.72;55.30;99928.38;5938452;24;20056;-89
2022/12/08 11:45:36;;;;;;;15.57;6.63;;;;;;;-2.48;55.35;99960.84;5938526;24;20406;-89
2022/12/08 12:01:24;;;;;;;14.13;6.45;;;;;;;-2.30;55.28;99977.03;5848363;24;20050;-88
2022/12/08 12:04:08;;;;;;;;;;;;;;;-2.54;57.07;99981.25;5860903;24;20026;-88
2022/12/08 12:12:12;;;;;;;14.70;6.35;;;;;;;-2.55;56.28;99987.63;5903377;24;20025;-88
2022/12/08 12:19:15;;;;;;;11.50;5.00;;;;;;;-2.87;57.05;99994.69;5912304;24;20052;-89
2022/12/08 12:27:00;;;;;;;17.08;7.03;;;;;;;-2.72;56.95;100000.63;5868706;24;20041;-88
2022/12/08 13:02:23;;;;;;;18.58;7.15;;;;;;;-2.68;57.11;100015.25;6213401;23;20024;-88
2022/12/08 13:08:55;;;;;;;11.90;6.45;;;;;;;-3.31;57.22;99919.47;6217793;23;20052;-88
2022/12/08 13:12:27;;;;;;;16.08;7.07;;;;;;;-2.76;56.95;99975.31;6109086;23;20029;-88
2022/12/08 13:18:39;;;;;;;17.00;6.85;;;;;;;-2.42;56.89;100024.22;6188487;23;20008;-89
2022/12/08 13:21:08;;;;;;;16.55;7.05;;;;;;;-2.33;56.72;100025.63;6214562;23;20443;-88
2022/12/08 13:24:36;;;;;;;14.05;6.47;;;;;;;-3.21;57.06;99932.41;6152570;23;20101;-87
2022/12/08 13:27:33;;;;;;;15.93;7.00;;;;;;;-2.50;57.06;100037.84;6128048;23;20036;-88
2022/12/08 13:31:10;;;;;;;19.23;7.15;;;;;;;-2.60;57.28;100028.38;6110566;23;20079;-88
2022/12/08 13:34:05;;;;;;;19.60;7.70;;;;;;;-2.37;57.19;100021.75;6130563;23;20024;-87
2022/12/08 13:40:23;;;;;;;15.20;7.00;;;;;;;-2.50;56.23;99960.22;6132283;23;20356;-89
2022/12/08 14:04:33;;;;;;;14.98;6.30;;;;;;;-2.59;56.02;99959.63;6051070;23;20019;-88
2022/12/08 14:07:14;;;;;;;13.15;6.30;;;;;;;-2.40;56.03;100000.75;6025310;23;20045;-87
2022/12/08 14:09:45;;;;;;;14.65;7.32;;;;;;;-2.14;55.93;100014.03;6018442;23;20054;-89
2022/12/08 14:13:11;;;;;;;16.67;7.10;;;;;;;-2.56;56.09;99971.75;6043791;23;20071;-89
2022/12/08 14:16:30;;;;;;;25.55;6.63;;;;;;;-2.25;56.10;100025.44;5929722;24;20032;-88
2022/12/08 14:19:52;;;;;;;13.75;6.90;;;;;;;-2.24;56.25;100024.38;5935612;24;20484;-90
2022/12/08 14:22:50;;;;;;;17.88;7.20;;;;;;;-2.38;56.57;99994.16;5930316;24;20029;-88
2022/12/08 14:25:17;;;;;;;16.90;7.15;;;;;;;-2.65;56.33;99960.47;5883466;24;20024;-88
2022/12/08 14:28:39;;;;;;;19.17;8.85;;;;;;;-2.42;57.07;100032.25;5935448;24;20040;-88
2022/12/08 14:31:55;;;;;;;19.75;8.35;;;;;;;-2.25;56.92;100033.47;5957182;24;20051;-89
2022/12/08 14:34:26;;;;;;;;;;;;;;;-2.22;56.25;100019.66;5957304;24;20020;-88
2022/12/08 14:37:12;;;;;;;15.18;6.70;;;;;;;-2.68;56.93;99966.22;5987467;24;20361;-90
2022/12/08 14:40:35;;;;;;;17.98;7.10;;;;;;;-2.27;56.88;100038.19;5991242;23;20135;-89
2022/12/08 14:43:25;;;;;;;18.23;7.25;;;;;;;-2.45;56.93;100046.06;6028685;23;20019;-88
2022/12/08 14:46:02;;;;;;;18.77;7.95;;;;;;;-2.66;57.53;100020.38;6099180;23;20018;-88
2022/12/08 14:48:41;;;;;;;15.38;7.30;;;;;;;-2.25;57.28;100048.69;6078144;23;20018;-88
2022/12/08 14:52:05;;;;;;;19.20;7.93;;;;;;;-2.14;56.74;100050.72;6137781;23;20016;-90
2022/12/08 14:55:21;;;;;;;18.52;7.32;;;;;;;-2.06;56.36;100044.28;6136958;23;20116;-88
2022/12/08 14:58:38;;;;;;;25.00;7.53;;;;;;;-2.20;56.29;100016.75;6103186;23;20477;-89
2022/12/08 15:01:22;;;;;;;19.25;7.93;;;;;;;-2.13;56.75;100055.84;6067692;23;20054;-89
2022/12/08 15:03:49;;;;;;;16.90;7.63;;;;;;;-2.37;56.88;100016.41;6104329;23;20141;-89
2022/12/08 15:06:42;;;;;;;19.52;7.88;;;;;;;-2.63;56.42;99966.44;6131169;23;20025;-89
2022/12/08 15:09:34;;;;;;;16.08;7.30;;;;;;;-2.33;56.01;99987.34;6106550;23;20034;-89
2022/12/08 15:12:30;;;;;;;30.00;8.48;;;;;;;-2.27;56.41;100003.38;6037565;23;20042;-90
2022/12/08 15:15:00;;;;;;;17.27;7.88;;;;;;;-1.76;56.14;100058.78;6013907;23;20020;-89
2022/12/08 15:17:33;;;;;;;16.55;7.97;;;;;;;-1.86;56.11;100066.47;6038996;23;20163;-90
2022/12/08 15:33:02;;;;;;;19.38;8.45;;;;;;;-1.75;56.28;100073.03;6017252;23;20035;-90
2022/12/08 15:39:47;;;;;;;24.20;9.80;;;;;;;-1.80;56.48;100107.66;6135383;23;20072;-92
2022/12/08 15:42:35;;;;;;;23.33;10.38;;;;;;;-2.29;57.10;100031.41;6121505;23;20021;-92
2022/12/08 15:49:46;;;;;;;27.55;10.82;;;;;;;-2.29;57.75;100059.00;6175236;23;20396;-88
2022/12/08 16:04:49;;;;;;;23.65;8.20;;;;;;;-2.18;58.32;100106.56;6201894;23;20093;-89
2022/12/08 16:14:50;;;;;;;18.23;7.82;;;;;;;-2.62;58.05;100008.22;6218151;22;20382;-89
2022/12/08 16:17:22;;;;;;;21.42;10.32;;;;;;;-2.46;58.17;100013.13;6164170;22;20025;-90
2022/12/08 16:33:22;;;;;;;25.95;10.60;;;;;;;-2.28;59.48;100097.34;6157352;23;20053;-89
2022/12/08 16:37:30;;;;;;;28.52;8.93;;;;;;;-2.41;60.15;100098.19;6052571;23;20034;-87
2022/12/08 16:39:57;;;;;;;25.45;11.30;;;;;;;-2.75;60.45;100048.38;6039115;23;20022;-91
2022/12/08 16:54:56;;;;;;;24.33;10.48;;;;;;;-2.74;59.45;99997.34;6218608;23;20063;-86
2022/12/08 16:58:08;;;;;;;26.58;9.77;;;;;;;-2.15;59.47;100063.28;6192822;23;20107;-89
2022/12/08 17:04:44;;;;;;;27.45;11.00;;;;;;;-1.83;59.37;100102.72;6187419;23;20020;-89
2022/12/08 17:08:01;;;;;;;33.97;10.73;;;;;;;-1.87;59.37;100101.53;6188468;23;20474;-90
2022/12/08 17:12:05;;;;;;;24.05;10.20;;;;;;;-2.11;60.34;100101.19;6169232;23;20017;-88
2022/12/08 17:19:03;;;;;;;27.00;11.63;;;;;;;-2.18;61.01;100103.88;6168225;23;19919;-90
2022/12/08 17:22:31;;;;;;;31.65;12.45;;;;;;;-2.06;61.04;100101.38;6166899;23;20017;-88
2022/12/08 17:30:13;;;;;;;28.30;12.27;;;;;;;-2.08;61.06;100102.63;6105015;23;20025;-85
2022/12/08 17:50:23;;;;;;;31.23;12.30;;;;;;;-2.44;61.31;100010.25;6181830;23;20059;-87
2022/12/08 17:53:22;;;;;;;25.60;10.70;;;;;;;-2.00;61.29;100118.47;6099511;23;20021;-88
2022/12/08 17:56:27;;;;;;;28.00;12.23;;;;;;;-2.52;61.85;100035.38;6200305;23;20025;-86
2022/12/08 17:59:43;;;;;;;25.63;11.07;;;;;;;-1.72;61.14;100118.16;6215929;23;20051;-89
2022/12/08 18:11:28;;;;;;;34.47;11.63;;;;;;;-2.06;62.33;100133.50;6195582;23;20051;-91
2022/12/08 18:15:02;;;;;;;26.55;11.75;;;;;;;-2.08;62.46;100132.09;6222158;23;20036;-90
2022/12/08 18:17:57;;;;;;;33.05;12.80;;;;;;;-2.02;62.81;100136.59;6198017;23;20016;-87
2022/12/08 18:20:30;;;;;;;25.85;10.70;;;;;;;-2.69;62.60;100035.00;6077633;23;20022;-89
2022/12/08 18:23:58;;;;;;;32.90;14.70;;;;;;;-2.03;62.87;100132.28;6168453;23;20024;-90
2022/12/08 18:26:45;;;;;;;37.90;13.50;;;;;;;-2.31;62.25;100066.44;6169482;23;20024;-90
2022/12/08 18:37:25;;;;;;;30.25;13.30;;;;;;;-1.71;63.21;100135.88;6139157;23;20017;-88
2022/12/08 18:54:37;;;;;;;47.05;17.10;;;;;;;-1.60;63.08;100142.44;6080991;23;20033;-88
2022/12/08 19:02:25;;;;;;;38.28;15.93;;;;;;;-1.62;62.86;100142.66;6103732;23;20057;-90
2022/12/08 19:45:13;;;;;;;47.67;18.15;;;;;;;-1.05;62.18;100150.81;6222959;22;20427;-90
2022/12/08 19:47:41;;;;;;;43.67;17.05;;;;;;;-1.44;62.39;100110.59;6177369;23;20087;-89
2022/12/08 19:50:37;;;;;;;43.72;16.08;;;;;;;-1.21;62.89;100149.47;6170931;23;20024;-87
2022/12/08 19:53:12;;;;;;;42.90;17.33;;;;;;;-1.71;62.35;100069.69;6187448;23;20017;-87
2022/12/08 19:55:41;;;;;;;42.83;17.40;;;;;;;-1.70;62.73;100092.78;6162149;23;20451;-87
2022/12/08 19:58:23;;;;;;;47.10;18.38;;;;;;;-1.88;62.78;100068.53;6163802;23;20072;-86
2022/12/08 20:00:49;;;;;;;49.47;17.20;;;;;;;-1.53;63.14;100119.09;6161683;23;20744;-87
2022/12/08 20:03:20;;;;;;;51.17;18.48;;;;;;;-1.74;62.96;100070.13;6185376;23;20017;-87
2022/12/08 20:10:21;;;;;;;56.60;19.80;;;;;;;-1.34;61.90;100079.81;6178881;23;20027;-88
2022/12/08 20:17:19;;;;;;;45.05;18.40;;;;;;;-1.20;63.47;100148.41;6151591;23;20117;-87
2022/12/08 20:19:47;;;;;;;50.10;18.63;;;;;;;-1.32;62.28;100070.50;6135879;23;20455;-90
2022/12/08 20:22:28;;;;;;;44.88;18.20;;;;;;;-1.16;61.67;100077.19;6186951;23;20100;-88
2022/12/08 20:24:58;;;;;;;45.17;16.73;;;;;;;-1.02;61.66;100127.06;6160410;23;20023;-89
2022/12/08 20:34:02;;;;;;;34.08;14.85;;;;;;;-1.15;61.75;100112.91;6221023;22;20029;-91
2022/12/08 20:36:43;;;;;;;38.50;15.18;;;;;;;-0.71;61.48;100161.09;6176039;23;20025;-92
2022/12/08 21:10:02;;;;;;;36.03;15.95;;;;;;;-0.97;61.09;100103.06;6180322;22;20074;-88
2022/12/08 21:12:29;;;;;;;44.50;17.02;;;;;;;-0.86;61.05;100109.59;6230939;23;20028;-89
2022/12/08 21:14:56;;;;;;;38.38;16.17;;;;;;;-0.76;60.86;100123.34;6174039;23;20043;-90
2022/12/08 21:17:22;;;;;;;33.65;16.05;;;;;;;-1.07;60.64;100077.75;6121356;23;20074;-90
2022/12/08 21:19:49;;;;;;;33.95;15.85;;;;;;;-0.76;61.19;100115.31;6169028;23;20107;-88
2022/12/08 21:22:15;;;;;;;31.15;15.10;;;;;;;-1.15;60.29;100045.84;6219061;23;20091;-90
2022/12/08 21:24:42;;;;;;;35.63;15.38;;;;;;;-1.11;61.29;100082.72;6143162;23;20048;-89
2022/12/08 21:40:23;;;;;;;29.08;12.68;;;;;;;-1.33;61.25;100033.97;5169628;27;20560;-88
2022/12/08 21:42:52;;;;;;;28.92;13.48;;;;;;;-0.86;60.88;100096.19;5152828;27;20491;-89
2022/12/08 21:45:20;;;;;;;29.25;12.85;;;;;;;-0.97;61.33;100111.09;5131215;27;20023;-91
2022/12/08 21:47:47;;;;;;;35.58;14.45;;;;;;;-1.22;62.02;100104.91;5129500;27;20035;-92
2022/12/08 21:50:16;;;;;;;33.35;14.27;;;;;;;-1.59;62.62;100077.91;5162389;27;20045;-89
2022/12/08 21:52:44;;;;;;;35.20;14.93;;;;;;;-1.38;63.14;100125.00;5124273;27;20035;-90
2022/12/08 21:55:11;;;;;;;38.88;15.75;;;;;;;-1.67;63.42;100064.72;5132024;27;20042;-91
2022/12/08 21:57:40;;;;;;;39.15;14.95;;;;;;;-1.50;63.13;100097.22;5136877;27;20076;-92
2022/12/08 22:00:12;;;;;;;46.17;16.65;;;;;;;-1.11;63.02;100154.38;5130450;27;20031;-89
2022/12/08 22:02:40;;;;;;;39.95;16.52;;;;;;;-1.47;62.69;100059.25;5123887;27;20031;-90
2022/12/08 22:05:08;;;;;;;39.97;15.52;;;;;;;-1.06;62.56;100123.16;5125721;27;20044;-90
2022/12/08 22:07:37;;;;;;;39.00;17.23;;;;;;;-1.27;62.39;100084.06;5119408;27;20031;-89